Time;durP1;ratioP1;P1;durP2;ratioP2;P2;SDS_P1;SDS_P2;PMS_P1;PMS_P2;Temp;Humidity;BMP_temperature;BMP_pressure;BME280_temperature;BME280_humidity;BME280_pressure;Samples;Min_cycle;Max_cycle;Signal;HPM_P1;HPM_P2
2022/09/16 00:00:55;;;;;;;0.67;0.67;;;;;12.10;95480.00;;;;5115492;28;20186;-70
2022/09/16 00:03:22;;;;;;;0.70;0.70;;;;;12.20;95481.00;;;;5115666;28;20241;-72
2022/09/16 00:05:50;;;;;;;0.50;0.50;;;;;12.20;95472.00;;;;5115410;28;20205;-70
2022/09/16 00:08:20;;;;;;;0.77;0.77;;;;;12.20;95467.00;;;;5115236;28;20608;-67
2022/09/16 00:10:47;;;;;;;1.03;0.90;;;;;12.10;95464.00;;;;5115393;28;20204;-71
2022/09/16 00:13:15;;;;;;;1.20;1.20;;;;;12.20;95471.00;;;;5115367;28;20277;-71
2022/09/16 00:15:45;;;;;;;0.93;0.93;;;;;12.20;95466.00;;;;5115374;28;20511;-70
2022/09/16 00:18:12;;;;;;;0.60;0.60;;;;;12.20;95466.00;;;;5115417;28;20213;-72
2022/09/16 00:20:44;;;;;;;0.60;0.60;;;;;12.20;95472.00;;;;5115545;28;20281;-71
2022/09/16 00:23:11;;;;;;;0.80;0.80;;;;;12.00;95465.00;;;;5115481;28;20202;-69
2022/09/16 00:25:38;;;;;;;0.50;0.50;;;;;12.00;95468.00;;;;5115225;28;20282;-72
2022/09/16 00:28:07;;;;;;;1.20;1.20;;;;;12.00;95478.00;;;;5117871;28;20273;-71
2022/09/16 00:30:34;;;;;;;0.70;0.70;;;;;12.00;95477.00;;;;5117482;28;20617;-73
2022/09/16 00:33:03;;;;;;;0.90;0.90;;;;;12.00;95473.00;;;;5116314;28;20201;-71
2022/09/16 00:35:30;;;;;;;1.10;1.10;;;;;12.00;95463.00;;;;5117067;28;20644;-71
2022/09/16 00:37:57;;;;;;;0.90;0.90;;;;;12.10;95476.00;;;;5115853;28;20226;-67
2022/09/16 00:40:27;;;;;;;0.90;0.90;;;;;12.20;95463.00;;;;5115376;28;20198;-68
2022/09/16 00:42:53;;;;;;;1.50;1.40;;;;;12.20;95466.00;;;;5114902;28;20182;-70
2022/09/16 00:45:22;;;;;;;0.80;0.80;;;;;12.20;95467.00;;;;5114836;28;20197;-71
2022/09/16 00:47:52;;;;;;;1.00;1.00;;;;;12.20;95472.00;;;;5114628;28;20289;-71
2022/09/16 00:50:29;;;;;;;0.93;0.87;;;;;12.00;95466.00;;;;5114736;28;20516;-71
2022/09/16 00:52:58;;;;;;;1.13;1.13;;;;;11.90;95471.00;;;;5114622;28;20222;-71
2022/09/16 00:55:28;;;;;;;0.90;0.90;;;;;12.00;95473.00;;;;5114733;28;20202;-71
2022/09/16 00:58:01;;;;;;;0.93;0.93;;;;;11.90;95476.00;;;;5114732;28;20229;-71
2022/09/16 01:00:28;;;;;;;0.60;0.60;;;;;12.00;95466.00;;;;5114761;28;20645;-71
2022/09/16 01:02:55;;;;;;;0.60;0.60;;;;;12.00;95465.00;;;;5114621;28;20212;-70
2022/09/16 01:05:25;;;;;;;0.80;0.80;;;;;12.10;95454.00;;;;5096724;28;20206;-70
2022/09/16 01:07:54;;;;;;;0.83;0.83;;;;;12.20;95473.00;;;;5114623;28;20197;-72
2022/09/16 01:10:22;;;;;;;0.80;0.80;;;;;12.10;95471.00;;;;5113938;28;20233;-73
2022/09/16 01:12:54;;;;;;;1.13;1.13;;;;;12.10;95467.00;;;;5114286;28;20206;-73
2022/09/16 01:15:25;;;;;;;0.40;0.40;;;;;12.10;95458.00;;;;5117898;28;20253;-72
2022/09/16 01:18:07;;;;;;;0.83;0.83;;;;;12.10;95467.00;;;;5117333;28;20232;-72
2022/09/16 01:21:00;;;;;;;0.60;0.60;;;;;12.10;95458.00;;;;5116826;28;20229;-72
2022/09/16 01:24:02;;;;;;;1.20;1.07;;;;;12.10;95439.00;;;;5117081;28;20624;-71
2022/09/16 01:26:57;;;;;;;0.73;0.73;;;;;12.10;95440.00;;;;5114145;28;20221;-72
2022/09/16 01:29:51;;;;;;;0.50;0.50;;;;;12.10;95429.00;;;;5113644;28;20206;-72
2022/09/16 01:32:26;;;;;;;0.70;0.70;;;;;12.10;95427.00;;;;5114026;28;20227;-68
2022/09/16 01:35:03;;;;;;;0.90;0.90;;;;;12.10;95436.00;;;;5114114;28;20208;-72
2022/09/16 01:37:39;;;;;;;0.83;0.83;;;;;12.10;95447.00;;;;5114034;28;20217;-72
2022/09/16 01:40:12;;;;;;;0.60;0.60;;;;;12.10;95465.00;;;;5114144;28;20201;-72
2022/09/16 01:42:48;;;;;;;0.50;0.50;;;;;11.80;95475.00;;;;5095921;28;20281;-71
2022/09/16 01:45:23;;;;;;;0.43;0.43;;;;;11.80;95467.00;;;;5113965;28;20281;-71
2022/09/16 01:47:59;;;;;;;0.70;0.70;;;;;11.70;95468.00;;;;5113913;28;20193;-71
2022/09/16 01:50:29;;;;;;;1.20;1.20;;;;;11.80;95466.00;;;;5113903;28;20229;-71
2022/09/16 01:53:05;;;;;;;1.00;1.00;;;;;11.70;95467.00;;;;5113933;28;20186;-73
2022/09/16 01:55:39;;;;;;;1.60;1.10;;;;;11.80;95469.00;;;;5113920;28;20213;-72
2022/09/16 01:58:14;;;;;;;1.07;1.07;;;;;11.80;95466.00;;;;5113947;28;20544;-73
2022/09/16 02:00:44;;;;;;;0.50;0.50;;;;;11.90;95459.00;;;;5113819;28;20243;-69
2022/09/16 02:03:16;;;;;;;1.77;1.00;;;;;11.90;95459.00;;;;5113794;28;20586;-69
2022/09/16 02:05:49;;;;;;;1.30;1.23;;;;;11.90;95453.00;;;;5113739;28;20244;-71
2022/09/16 02:08:20;;;;;;;0.97;0.97;;;;;11.90;95459.00;;;;5113857;28;20284;-71
2022/09/16 02:10:52;;;;;;;0.70;0.70;;;;;11.80;95444.00;;;;5113754;28;20542;-72
2022/09/16 02:13:24;;;;;;;0.70;0.70;;;;;11.80;95463.00;;;;5113645;28;20540;-72
2022/09/16 02:15:54;;;;;;;1.20;1.20;;;;;11.80;95452.00;;;;5113533;28;20190;-71
2022/09/16 02:18:25;;;;;;;1.03;1.03;;;;;11.80;95451.00;;;;5113636;28;20312;-72
2022/09/16 02:20:54;;;;;;;2.20;1.47;;;;;11.80;95449.00;;;;5113567;28;20198;-72
2022/09/16 02:23:26;;;;;;;0.87;0.87;;;;;11.70;95445.00;;;;5116290;28;20241;-72
2022/09/16 02:25:54;;;;;;;0.70;0.70;;;;;11.70;95437.00;;;;5117175;28;20248;-72
2022/09/16 02:28:25;;;;;;;0.73;0.73;;;;;11.70;95458.00;;;;5117008;28;20225;-69
2022/09/16 02:30:57;;;;;;;0.50;0.50;;;;;11.40;95461.00;;;;5117176;28;20273;-72
2022/09/16 02:33:29;;;;;;;0.63;0.63;;;;;11.20;95458.00;;;;5117120;28;20703;-71
2022/09/16 02:35:58;;;;;;;0.90;0.90;;;;;11.20;95449.00;;;;5117142;28;20200;-71
2022/09/16 02:38:30;;;;;;;0.83;0.83;;;;;11.30;95448.00;;;;5117093;28;20255;-69
2022/09/16 02:40:59;;;;;;;1.10;1.10;;;;;11.40;95444.00;;;;5117015;28;20648;-70
2022/09/16 02:43:27;;;;;;;0.70;0.70;;;;;11.50;95449.00;;;;5117033;28;20217;-70
2022/09/16 02:46:03;;;;;;;0.70;0.70;;;;;11.50;95447.00;;;;5116834;28;20207;-71
2022/09/16 02:48:41;;;;;;;1.10;1.10;;;;;11.60;95448.00;;;;5116737;28;20602;-72
2022/09/16 02:51:15;;;;;;;0.97;0.97;;;;;11.60;95444.00;;;;5116678;28;20722;-71
2022/09/16 02:53:49;;;;;;;0.90;0.90;;;;;11.60;95449.00;;;;5116780;28;20276;-72
2022/09/16 02:56:22;;;;;;;0.90;0.90;;;;;11.70;95449.00;;;;5116549;28;20232;-69
2022/09/16 02:58:49;;;;;;;0.73;0.73;;;;;11.70;95446.00;;;;5116780;28;20597;-71
2022/09/16 03:01:17;;;;;;;0.63;0.63;;;;;11.70;95446.00;;;;5116602;28;20214;-72
2022/09/16 03:03:44;;;;;;;0.80;0.80;;;;;11.70;95447.00;;;;5116652;28;20190;-69
2022/09/16 03:06:17;;;;;;;0.73;0.73;;;;;11.80;95441.00;;;;5116612;28;20194;-70
2022/09/16 03:08:45;;;;;;;2.80;1.07;;;;;11.80;95436.00;;;;5116549;28;20233;-67
2022/09/16 03:11:33;;;;;;;0.60;0.60;;;;;11.90;95440.00;;;;5098563;28;20262;-71
2022/09/16 03:14:11;;;;;;;0.80;0.80;;;;;11.70;95436.00;;;;5116384;28;20221;-71
2022/09/16 03:16:49;;;;;;;0.83;0.83;;;;;11.70;95446.00;;;;5119303;28;20202;-69
2022/09/16 03:19:25;;;;;;;0.57;0.57;;;;;11.50;95441.00;;;;5116391;28;20249;-72
2022/09/16 03:22:01;;;;;;;1.63;1.53;;;;;11.60;95428.00;;;;5116218;28;20719;-72
2022/09/16 03:24:38;;;;;;;0.60;0.60;;;;;11.60;95436.00;;;;5116117;28;20233;-72
2022/09/16 03:27:09;;;;;;;0.50;0.50;;;;;11.60;95432.00;;;;5116191;28;20197;-72
2022/09/16 03:29:41;;;;;;;0.73;0.73;;;;;11.60;95427.00;;;;5116026;28;20233;-69
2022/09/16 03:32:17;;;;;;;0.60;0.60;;;;;11.60;95421.00;;;;5116093;28;20198;-72
2022/09/16 03:34:51;;;;;;;0.60;0.60;;;;;11.70;95420.00;;;;5115289;28;20308;-72
2022/09/16 03:37:22;;;;;;;0.93;0.93;;;;;11.80;95426.00;;;;5116202;28;20182;-72
2022/09/16 03:39:52;;;;;;;0.90;0.90;;;;;11.80;95425.00;;;;5116114;28;20214;-71
2022/09/16 03:42:19;;;;;;;0.87;0.87;;;;;11.70;95425.00;;;;5116080;28;20294;-71
2022/09/16 03:44:46;;;;;;;0.87;0.87;;;;;11.70;95430.00;;;;5115918;28;20258;-72
2022/09/16 03:47:13;;;;;;;0.80;0.80;;;;;11.80;95419.00;;;;5115912;28;20244;-72
2022/09/16 03:49:40;;;;;;;1.40;1.17;;;;;11.90;95418.00;;;;5115835;28;20208;-72
2022/09/16 03:52:08;;;;;;;0.70;0.70;;;;;11.80;95420.00;;;;5115712;28;20218;-72
2022/09/16 03:54:35;;;;;;;0.87;0.87;;;;;11.80;95416.00;;;;5115793;28;20212;-72
2022/09/16 03:57:02;;;;;;;0.50;0.50;;;;;11.90;95420.00;;;;5115467;28;20226;-72
2022/09/16 03:59:29;;;;;;;0.60;0.60;;;;;11.80;95418.00;;;;5115613;28;20217;-73
2022/09/16 04:01:56;;;;;;;0.70;0.70;;;;;11.80;95416.00;;;;5115476;28;20649;-71
2022/09/16 04:04:25;;;;;;;0.87;0.87;;;;;11.80;95416.00;;;;5097495;28;20269;-69
2022/09/16 04:06:52;;;;;;;0.70;0.70;;;;;11.90;95409.00;;;;5115486;28;20676;-72
2022/09/16 04:09:23;;;;;;;0.90;0.90;;;;;11.90;95407.00;;;;5115546;28;20251;-72
2022/09/16 04:11:49;;;;;;;1.00;1.00;;;;;12.00;95405.00;;;;5115263;28;20221;-69
2022/09/16 04:14:16;;;;;;;1.03;1.03;;;;;12.00;95405.00;;;;5115562;28;20193;-72
2022/09/16 04:16:43;;;;;;;1.53;1.43;;;;;12.00;95402.00;;;;5115218;28;20190;-72
2022/09/16 04:19:12;;;;;;;0.80;0.80;;;;;12.00;95404.00;;;;5115266;28;20214;-72
2022/09/16 04:21:39;;;;;;;1.37;1.37;;;;;12.00;95395.00;;;;5115157;28;20197;-71
2022/09/16 04:24:06;;;;;;;0.87;0.87;;;;;11.90;95395.00;;;;5115199;28;20672;-71
2022/09/16 04:26:34;;;;;;;0.97;0.97;;;;;11.80;95411.00;;;;5115149;28;20202;-71
2022/09/16 04:29:00;;;;;;;0.63;0.63;;;;;11.90;95405.00;;;;5115132;28;20762;-71
2022/09/16 04:31:27;;;;;;;0.80;0.80;;;;;11.90;95396.00;;;;5115296;28;20193;-70
2022/09/16 04:33:57;;;;;;;0.60;0.60;;;;;11.90;95394.00;;;;5115010;28;20198;-68
2022/09/16 04:36:23;;;;;;;0.90;0.90;;;;;11.90;95383.00;;;;5114983;28;20282;-71
2022/09/16 04:38:50;;;;;;;0.60;0.60;;;;;11.90;95382.00;;;;5114840;28;20214;-71
2022/09/16 04:41:19;;;;;;;0.60;0.60;;;;;12.00;95381.00;;;;5114892;28;20189;-71
2022/09/16 04:43:50;;;;;;;0.80;0.80;;;;;11.90;95381.00;;;;5114887;28;20198;-71
2022/09/16 04:46:18;;;;;;;0.60;0.60;;;;;11.70;95395.00;;;;5113566;28;20648;-71
2022/09/16 04:48:47;;;;;;;1.40;1.17;;;;;11.80;95387.00;;;;5114638;28;20194;-72
2022/09/16 04:51:17;;;;;;;0.70;0.70;;;;;11.80;95376.00;;;;5114775;28;20177;-71
2022/09/16 04:53:44;;;;;;;0.80;0.80;;;;;11.80;95375.00;;;;5114668;28;20266;-71
2022/09/16 04:56:14;;;;;;;0.60;0.60;;;;;11.90;95391.00;;;;5114825;28;20200;-72
2022/09/16 04:58:41;;;;;;;0.70;0.70;;;;;12.00;95394.00;;;;5114485;28;20255;-71
2022/09/16 05:01:13;;;;;;;0.60;0.60;;;;;12.00;95400.00;;;;5114640;28;20206;-72
2022/09/16 05:03:40;;;;;;;0.90;0.90;;;;;12.00;95404.00;;;;5114519;28;20710;-72
2022/09/16 05:06:09;;;;;;;0.80;0.80;;;;;12.00;95397.00;;;;5096530;28;20255;-70
2022/09/16 05:08:36;;;;;;;1.03;0.83;;;;;12.00;95401.00;;;;5114405;28;20226;-74
2022/09/16 05:11:05;;;;;;;0.77;0.77;;;;;12.00;95395.00;;;;5114471;28;20217;-75
2022/09/16 05:13:32;;;;;;;0.70;0.70;;;;;12.00;95401.00;;;;5114257;28;20261;-74
2022/09/16 05:16:02;;;;;;;0.50;0.50;;;;;12.00;95409.00;;;;5114328;28;20190;-74
2022/09/16 05:18:30;;;;;;;0.80;0.80;;;;;12.00;95399.00;;;;5114230;28;20551;-74
2022/09/16 05:20:58;;;;;;;1.00;1.00;;;;;12.00;95404.00;;;;5114298;28;20293;-73
2022/09/16 05:23:25;;;;;;;0.90;0.90;;;;;12.10;95403.00;;;;5114316;28;20228;-72
2022/09/16 05:25:52;;;;;;;0.90;0.90;;;;;12.20;95403.00;;;;5114233;28;20190;-72
2022/09/16 05:28:19;;;;;;;0.90;0.90;;;;;12.10;95405.00;;;;5114597;28;20286;-66
2022/09/16 05:30:46;;;;;;;0.63;0.63;;;;;11.90;95396.00;;;;5114139;28;20538;-63
2022/09/16 05:33:13;;;;;;;0.70;0.70;;;;;12.00;95406.00;;;;5114014;28;20317;-63
2022/09/16 05:35:41;;;;;;;1.30;1.30;;;;;12.00;95405.00;;;;5114074;28;20190;-74
2022/09/16 05:38:08;;;;;;;0.90;0.90;;;;;12.00;95396.00;;;;5113887;28;20274;-74
2022/09/16 05:40:35;;;;;;;0.90;0.90;;;;;12.00;95399.00;;;;5113859;28;20228;-74
2022/09/16 05:43:02;;;;;;;1.03;1.03;;;;;11.90;95399.00;;;;5114294;28;20197;-73
2022/09/16 05:45:29;;;;;;;1.03;1.03;;;;;11.90;95407.00;;;;5114060;28;20371;-74
2022/09/16 05:48:19;;;;;;;0.73;0.73;;;;;12.00;95407.00;;;;5114104;28;20508;-73
2022/09/16 05:50:52;;;;;;;0.60;0.60;;;;;12.00;95409.00;;;;5102589;28;20228;-73
2022/09/16 05:53:19;;;;;;;0.50;0.50;;;;;12.00;95412.00;;;;5113920;28;20645;-73
2022/09/16 05:55:55;;;;;;;1.17;1.13;;;;;12.00;95409.00;;;;5113868;28;20182;-73
2022/09/16 05:58:22;;;;;;;0.80;0.80;;;;;12.10;95405.00;;;;5113418;28;20210;-71
2022/09/16 06:00:48;;;;;;;0.87;0.87;;;;;12.10;95410.00;;;;5113795;28;20279;-71
2022/09/16 06:03:18;;;;;;;1.03;1.03;;;;;12.10;95408.00;;;;5120935;28;20217;-73
2022/09/16 06:05:45;;;;;;;0.60;0.60;;;;;12.20;95414.00;;;;5122024;28;20378;-73
2022/09/16 06:08:12;;;;;;;1.17;1.17;;;;;12.20;95417.00;;;;5095884;28;20253;-73
2022/09/16 06:10:39;;;;;;;0.90;0.90;;;;;12.20;95420.00;;;;5113704;28;20281;-74
2022/09/16 06:13:06;;;;;;;0.80;0.80;;;;;12.20;95420.00;;;;5113695;28;20240;-73
2022/09/16 06:15:34;;;;;;;0.70;0.70;;;;;12.30;95412.00;;;;5113626;28;20211;-73
2022/09/16 06:18:03;;;;;;;1.20;1.20;;;;;12.30;95415.00;;;;5113435;28;20277;-73
2022/09/16 06:20:30;;;;;;;1.27;1.27;;;;;12.30;95431.00;;;;5113443;28;20237;-73
2022/09/16 06:22:57;;;;;;;0.93;0.93;;;;;12.30;95425.00;;;;5113468;28;20251;-73
2022/09/16 06:25:24;;;;;;;0.80;0.80;;;;;12.20;95430.00;;;;5095660;28;20232;-73
2022/09/16 06:27:53;;;;;;;0.77;0.77;;;;;12.30;95413.00;;;;5113405;28;20198;-73
2022/09/16 06:30:20;;;;;;;0.90;0.90;;;;;12.30;95405.00;;;;5113301;28;20205;-69
2022/09/16 06:32:47;;;;;;;0.70;0.70;;;;;12.40;95406.00;;;;5113418;28;20196;-73
2022/09/16 06:35:14;;;;;;;0.70;0.70;;;;;12.40;95409.00;;;;5113331;28;20271;-73
2022/09/16 06:37:41;;;;;;;3.60;1.67;;;;;12.40;95410.00;;;;5113273;28;20214;-74
2022/09/16 06:40:08;;;;;;;0.70;0.70;;;;;12.30;95410.00;;;;5113235;28;20222;-73
2022/09/16 06:42:36;;;;;;;0.90;0.90;;;;;12.40;95412.00;;;;5113210;28;20218;-73
2022/09/16 06:45:03;;;;;;;0.90;0.90;;;;;12.30;95419.00;;;;5113222;28;20277;-71
2022/09/16 06:47:32;;;;;;;0.80;0.80;;;;;12.30;95420.00;;;;5113120;28;20186;-69
2022/09/16 06:49:59;;;;;;;1.00;1.00;;;;;12.30;95421.00;;;;5113041;28;20205;-73
2022/09/16 06:52:26;;;;;;;1.33;1.33;;;;;12.40;95418.00;;;;5113102;28;20200;-73
2022/09/16 06:54:52;;;;;;;0.80;0.80;;;;;12.40;95420.00;;;;5112949;28;20230;-73
2022/09/16 06:57:22;;;;;;;0.77;0.77;;;;;12.40;95411.00;;;;5113031;28;20197;-74
2022/09/16 06:59:50;;;;;;;1.77;1.00;;;;;12.40;95409.00;;;;5112848;28;20350;-73
2022/09/16 07:02:18;;;;;;;0.90;0.90;;;;;12.50;95410.00;;;;5095200;28;20771;-73
2022/09/16 07:04:45;;;;;;;0.87;0.87;;;;;12.50;95424.00;;;;5113025;28;20217;-73
2022/09/16 07:07:12;;;;;;;1.00;1.00;;;;;12.50;95428.00;;;;5112923;28;20190;-73
2022/09/16 07:09:40;;;;;;;1.43;1.43;;;;;12.40;95382.00;;;;5114573;28;20213;-73
2022/09/16 07:12:07;;;;;;;0.50;0.50;;;;;12.40;95415.00;;;;5116380;28;20217;-73
2022/09/16 07:14:34;;;;;;;0.80;0.80;;;;;12.40;95421.00;;;;5116204;28;20287;-73
2022/09/16 07:17:02;;;;;;;0.63;0.63;;;;;12.50;95421.00;;;;5116313;28;20718;-74
2022/09/16 07:19:28;;;;;;;1.03;1.03;;;;;12.50;95425.00;;;;5098314;28;20602;-73
2022/09/16 07:21:56;;;;;;;1.10;1.10;;;;;12.50;95424.00;;;;5116215;28;20190;-74
2022/09/16 07:24:23;;;;;;;1.07;1.03;;;;;12.60;95422.00;;;;5116050;28;20540;-73
2022/09/16 07:26:50;;;;;;;0.83;0.83;;;;;12.50;95424.00;;;;5098359;28;20235;-74
2022/09/16 07:29:19;;;;;;;1.20;1.20;;;;;12.60;95446.00;;;;5116202;28;20248;-74
2022/09/16 07:31:46;;;;;;;1.37;1.33;;;;;12.50;95436.00;;;;5116046;28;20198;-73
2022/09/16 07:34:14;;;;;;;1.10;1.00;;;;;12.50;95441.00;;;;5115954;28;20233;-73
2022/09/16 07:36:42;;;;;;;0.83;0.83;;;;;12.50;95446.00;;;;5116092;28;20216;-73
2022/09/16 07:39:13;;;;;;;1.03;1.03;;;;;12.50;95440.00;;;;5115884;28;20222;-73
2022/09/16 07:41:42;;;;;;;1.00;1.00;;;;;12.50;95443.00;;;;5115892;28;20201;-72
2022/09/16 07:44:12;;;;;;;1.20;1.20;;;;;12.50;95444.00;;;;5115866;28;20196;-73
2022/09/16 07:46:39;;;;;;;1.07;1.07;;;;;12.40;95449.00;;;;5115693;28;20740;-73
2022/09/16 07:49:12;;;;;;;0.90;0.90;;;;;12.40;95447.00;;;;5097813;28;20210;-73
2022/09/16 07:51:40;;;;;;;1.00;0.93;;;;;12.50;95453.00;;;;5115714;28;20222;-73
2022/09/16 07:54:09;;;;;;;1.07;1.07;;;;;12.50;95460.00;;;;5115929;28;20222;-68
2022/09/16 07:56:38;;;;;;;1.33;0.90;;;;;12.40;95465.00;;;;5115751;28;20182;-73
2022/09/16 07:59:07;;;;;;;0.70;0.70;;;;;12.40;95453.00;;;;5115529;28;20226;-73
2022/09/16 08:01:36;;;;;;;0.60;0.60;;;;;12.40;95442.00;;;;5097580;28;20586;-74
2022/09/16 08:04:03;;;;;;;0.50;0.50;;;;;12.60;95437.00;;;;5115448;28;20300;-74
2022/09/16 08:06:36;;;;;;;0.70;0.70;;;;;12.80;95439.00;;;;5115533;28;20633;-73
2022/09/16 08:09:05;;;;;;;0.90;0.90;;;;;13.10;95438.00;;;;5115302;28;20240;-74
2022/09/16 08:11:32;;;;;;;1.00;1.00;;;;;13.10;95451.00;;;;5115427;28;20236;-73
2022/09/16 08:14:00;;;;;;;0.90;0.90;;;;;13.30;95462.00;;;;5115420;28;20277;-74
2022/09/16 08:16:29;;;;;;;0.70;0.70;;;;;13.30;95462.00;;;;5115372;28;20225;-72
2022/09/16 08:18:57;;;;;;;0.63;0.63;;;;;13.30;95464.00;;;;5097632;28;20605;-73
2022/09/16 08:21:28;;;;;;;0.77;0.77;;;;;13.20;95471.00;;;;5115096;28;20301;-73
2022/09/16 08:23:55;;;;;;;0.60;0.60;;;;;13.30;95467.00;;;;5115459;28;20311;-74
2022/09/16 08:26:24;;;;;;;0.97;0.97;;;;;13.40;95463.00;;;;5115285;28;20329;-74
2022/09/16 08:28:51;;;;;;;0.80;0.80;;;;;13.50;95465.00;;;;5115699;28;20206;-70
2022/09/16 08:31:21;;;;;;;0.70;0.70;;;;;13.60;95468.00;;;;5117266;28;20194;-74
2022/09/16 08:33:48;;;;;;;0.70;0.70;;;;;13.60;95472.00;;;;5115170;28;20216;-74
2022/09/16 08:36:19;;;;;;;0.67;0.67;;;;;13.50;95477.00;;;;5097282;28;20217;-71
2022/09/16 08:38:46;;;;;;;0.50;0.50;;;;;13.50;95479.00;;;;5097273;28;20560;-73
2022/09/16 08:41:40;;;;;;;0.80;0.80;;;;;13.50;95479.00;;;;5115165;28;20277;-74
2022/09/16 08:44:19;;;;;;;0.53;0.53;;;;;13.30;95486.00;;;;5112979;28;20238;-73
2022/09/16 08:46:51;;;;;;;0.50;0.50;;;;;13.30;95487.00;;;;5115152;28;20193;-73
2022/09/16 08:49:27;;;;;;;1.40;1.30;;;;;13.30;95490.00;;;;5114955;28;20709;-72
2022/09/16 08:51:54;;;;;;;0.60;0.60;;;;;13.20;95486.00;;;;5114944;28;20272;-74
2022/09/16 08:54:29;;;;;;;0.60;0.60;;;;;13.20;95494.00;;;;5114852;28;20186;-72
2022/09/16 08:57:00;;;;;;;0.87;0.87;;;;;13.20;95496.00;;;;5114895;28;20277;-73
2022/09/16 08:59:31;;;;;;;0.60;0.60;;;;;13.20;95492.00;;;;5114728;28;20316;-73
2022/09/16 09:02:16;;;;;;;0.67;0.67;;;;;13.20;95486.00;;;;5114863;28;20217;-71
2022/09/16 09:04:43;;;;;;;0.70;0.70;;;;;13.20;95493.00;;;;5114943;28;20225;-73
2022/09/16 09:07:19;;;;;;;0.87;0.87;;;;;13.00;95490.00;;;;5119179;28;20226;-73
2022/09/16 09:10:00;;;;;;;0.80;0.80;;;;;12.70;95491.00;;;;5107833;28;20202;-70
2022/09/16 09:12:33;;;;;;;0.67;0.67;;;;;12.80;95493.00;;;;5114476;28;20221;-73
2022/09/16 09:15:12;;;;;;;0.60;0.60;;;;;12.80;95501.00;;;;5114480;28;20498;-73
2022/09/16 09:17:54;;;;;;;0.60;0.60;;;;;13.00;95489.00;;;;5114417;28;20273;-73
2022/09/16 09:20:34;;;;;;;1.03;0.80;;;;;13.20;95491.00;;;;5114261;28;20213;-72
2022/09/16 09:23:31;;;;;;;0.60;0.60;;;;;13.00;95477.00;;;;5096375;28;20209;-73
2022/09/16 09:26:08;;;;;;;0.60;0.60;;;;;12.90;95483.00;;;;5114316;28;20555;-73
2022/09/16 09:29:02;;;;;;;0.70;0.70;;;;;13.00;95473.00;;;;5114377;28;20519;-73
2022/09/16 09:31:40;;;;;;;0.77;0.77;;;;;13.10;95472.00;;;;5113559;28;20212;-71
2022/09/16 09:34:19;;;;;;;0.57;0.57;;;;;13.10;95476.00;;;;5096433;28;20212;-73
2022/09/16 09:37:02;;;;;;;0.50;0.50;;;;;13.20;95472.00;;;;5114096;28;20282;-73
2022/09/16 09:39:43;;;;;;;0.60;0.60;;;;;13.10;95478.00;;;;5114154;28;20220;-73
2022/09/16 09:42:16;;;;;;;0.87;0.80;;;;;12.80;95480.00;;;;5114021;28;20245;-73
2022/09/16 09:44:55;;;;;;;0.70;0.70;;;;;12.90;95489.00;;;;5114138;28;20633;-73
2022/09/16 09:47:27;;;;;;;0.50;0.50;;;;;12.80;95494.00;;;;5114038;28;20214;-73
2022/09/16 09:49:57;;;;;;;0.63;0.63;;;;;12.90;95491.00;;;;5114210;28;20190;-73
2022/09/16 09:52:30;;;;;;;1.00;1.00;;;;;12.50;95503.00;;;;5113948;28;20217;-73
2022/09/16 09:55:03;;;;;;;0.80;0.80;;;;;12.60;95498.00;;;;5098884;28;20576;-73
2022/09/16 09:57:36;;;;;;;0.70;0.70;;;;;12.80;95495.00;;;;5113911;28;20198;-73
2022/09/16 10:00:11;;;;;;;0.67;0.67;;;;;12.70;95494.00;;;;5095837;28;20233;-73
2022/09/16 10:02:40;;;;;;;0.43;0.43;;;;;12.90;95498.00;;;;5113976;28;20181;-73
2022/09/16 10:05:14;;;;;;;0.63;0.63;;;;;13.00;95490.00;;;;5113686;28;20240;-70
2022/09/16 10:07:41;;;;;;;0.60;0.60;;;;;13.20;95485.00;;;;5113685;28;20659;-73
2022/09/16 10:10:15;;;;;;;0.57;0.57;;;;;13.40;95481.00;;;;5113685;28;20225;-73
2022/09/16 10:12:42;;;;;;;0.50;0.50;;;;;13.60;95489.00;;;;5113546;28;20201;-75
2022/09/16 10:15:21;;;;;;;0.63;0.63;;;;;13.80;95484.00;;;;5113482;28;20720;-72
2022/09/16 10:17:49;;;;;;;0.93;0.83;;;;;13.90;95493.00;;;;5113346;28;20197;-73
2022/09/16 10:20:26;;;;;;;0.83;0.83;;;;;14.00;95499.00;;;;5113591;28;20230;-74
2022/09/16 10:23:00;;;;;;;0.90;0.90;;;;;14.10;95498.00;;;;5113799;28;20274;-78
2022/09/16 10:25:29;;;;;;;0.97;0.97;;;;;13.90;95492.00;;;;5113655;28;20206;-64
2022/09/16 10:27:58;;;;;;;0.70;0.70;;;;;13.80;95493.00;;;;5113525;28;20245;-75
2022/09/16 10:30:27;;;;;;;0.53;0.53;;;;;13.50;95491.00;;;;5113455;28;20205;-63
2022/09/16 10:32:57;;;;;;;0.60;0.60;;;;;13.60;95496.00;;;;5113259;28;20569;-66
2022/09/16 10:35:26;;;;;;;0.50;0.50;;;;;13.60;95492.00;;;;5113273;28;20205;-65
2022/09/16 10:37:55;;;;;;;0.70;0.70;;;;;13.90;95493.00;;;;5113276;28;20629;-65
2022/09/16 10:40:23;;;;;;;0.63;0.63;;;;;13.70;95503.00;;;;5113222;28;20221;-67
2022/09/16 10:42:51;;;;;;;1.07;1.07;;;;;13.80;95495.00;;;;5113781;28;20218;-64
2022/09/16 10:45:28;;;;;;;0.73;0.73;;;;;13.70;95498.00;;;;5116772;28;20700;-71
2022/09/16 10:47:58;;;;;;;0.67;0.67;;;;;13.60;95510.00;;;;5116939;28;20224;-74
2022/09/16 10:50:28;;;;;;;0.80;0.80;;;;;13.60;95501.00;;;;5116685;28;20225;-72
2022/09/16 10:52:55;;;;;;;0.60;0.60;;;;;13.70;95503.00;;;;5116750;28;20669;-72
2022/09/16 10:55:26;;;;;;;0.50;0.50;;;;;13.50;95514.00;;;;5116656;28;20272;-72
2022/09/16 10:58:07;;;;;;;0.67;0.67;;;;;13.30;95512.00;;;;5116606;28;20190;-71
2022/09/16 11:00:44;;;;;;;0.60;0.60;;;;;13.30;95519.00;;;;5116562;28;20217;-72
2022/09/16 11:03:40;;;;;;;0.63;0.63;;;;;13.20;95508.00;;;;5116796;28;20696;-72
2022/09/16 11:06:23;;;;;;;4.27;1.27;;;;;13.40;95508.00;;;;5118341;28;20191;-73
2022/09/16 11:08:59;;;;;;;0.60;0.60;;;;;13.10;95520.00;;;;5118126;28;20221;-72
2022/09/16 11:11:43;;;;;;;0.50;0.50;;;;;13.20;95512.00;;;;5100433;28;20210;-72
2022/09/16 11:14:20;;;;;;;0.80;0.80;;;;;13.50;95503.00;;;;5118373;28;20241;-72
2022/09/16 11:17:10;;;;;;;0.80;0.80;;;;;13.60;95499.00;;;;5116541;28;20209;-72
2022/09/16 11:19:48;;;;;;;2.00;1.10;;;;;13.50;95515.00;;;;5116100;28;20251;-73
2022/09/16 11:22:26;;;;;;;0.57;0.57;;;;;13.40;95507.00;;;;5098595;28;20202;-71
2022/09/16 11:25:19;;;;;;;0.60;0.60;;;;;13.40;95503.00;;;;5116131;28;20222;-72
2022/09/16 11:27:51;;;;;;;0.70;0.70;;;;;13.40;95499.00;;;;5116246;28;20650;-72
2022/09/16 11:30:21;;;;;;;0.50;0.50;;;;;13.50;95505.00;;;;5116156;28;20221;-70
2022/09/16 11:33:03;;;;;;;0.63;0.63;;;;;13.80;95503.00;;;;5116088;28;20307;-71
2022/09/16 11:35:40;;;;;;;0.73;0.73;;;;;14.40;95490.00;;;;5116196;28;20250;-72
2022/09/16 11:38:17;;;;;;;0.77;0.77;;;;;14.50;95502.00;;;;5116138;28;20200;-71
2022/09/16 11:40:50;;;;;;;1.07;1.07;;;;;14.80;95509.00;;;;5116124;28;20536;-72
2022/09/16 11:43:39;;;;;;;0.50;0.50;;;;;14.60;95499.00;;;;5115903;28;20213;-72
2022/09/16 11:46:14;;;;;;;0.70;0.70;;;;;14.80;95497.00;;;;5116153;28;20205;-71
2022/09/16 11:48:56;;;;;;;0.60;0.60;;;;;14.40;95504.00;;;;5115876;28;20228;-72
2022/09/16 11:51:47;;;;;;;0.63;0.63;;;;;14.40;95514.00;;;;5097983;28;20628;-72
2022/09/16 11:54:28;;;;;;;0.87;0.87;;;;;14.30;95514.00;;;;5115793;28;20575;-72
2022/09/16 11:56:59;;;;;;;0.77;0.77;;;;;14.10;95511.00;;;;5116741;28;20206;-70
2022/09/16 11:59:32;;;;;;;0.87;0.87;;;;;14.00;95503.00;;;;5115887;28;20245;-72
2022/09/16 12:02:08;;;;;;;2.93;1.53;;;;;14.20;95508.00;;;;5115770;28;20194;-72
2022/09/16 12:04:48;;;;;;;1.13;1.03;;;;;14.40;95502.00;;;;5115539;28;20217;-72
2022/09/16 12:07:22;;;;;;;1.43;1.17;;;;;14.60;95502.00;;;;5097495;28;20201;-72
2022/09/16 12:09:53;;;;;;;3.00;1.10;;;;;14.60;95506.00;;;;5115535;28;20244;-70
2022/09/16 12:12:23;;;;;;;0.50;0.50;;;;;14.00;95502.00;;;;5115498;28;20198;-72
2022/09/16 12:14:54;;;;;;;1.10;1.10;;;;;14.20;95513.00;;;;5115437;28;20244;-71
2022/09/16 12:17:24;;;;;;;0.80;0.80;;;;;14.10;95500.00;;;;5115386;28;20222;-73
2022/09/16 12:19:56;;;;;;;0.50;0.50;;;;;13.60;95516.00;;;;5115242;28;20238;-72
2022/09/16 12:22:29;;;;;;;0.67;0.67;;;;;13.70;95504.00;;;;5115270;28;20225;-72
2022/09/16 12:25:03;;;;;;;0.50;0.50;;;;;13.70;95503.00;;;;5115398;28;20194;-71
2022/09/16 12:27:42;;;;;;;0.80;0.80;;;;;13.90;95493.00;;;;5115178;28;20276;-71
2022/09/16 12:30:16;;;;;;;0.77;0.70;;;;;14.10;95494.00;;;;5097341;28;20273;-75
2022/09/16 12:32:54;;;;;;;0.57;0.57;;;;;13.90;95512.00;;;;5115153;28;20644;-74
2022/09/16 12:35:27;;;;;;;1.70;1.47;;;;;13.70;95492.00;;;;5115382;28;20220;-72
2022/09/16 12:37:54;;;;;;;0.60;0.60;;;;;13.90;95497.00;;;;5115294;28;20209;-72
2022/09/16 12:40:26;;;;;;;0.63;0.63;;;;;14.20;95489.00;;;;5114961;28;20673;-69